Time;durP1;ratioP1;P1;durP2;ratioP2;P2;SDS_P1;SDS_P2;PMS_P1;PMS_P2;Temp;Humidity;BMP_temperature;BMP_pressure;BME280_temperature;BME280_humidity;BME280_pressure;Samples;Min_cycle;Max_cycle;Signal;HPM_P1;HPM_P2
2024/02/09 00:01:52;;;;;;;7.50;3.10;;;9.90;99.90;;;;;;484954;245;28158;-72
2024/02/09 00:03:53;;;;;;;7.60;3.13;;;9.90;99.90;;;;;;484941;245;28039;-75
2024/02/09 00:05:53;;;;;;;11.10;2.50;;;9.90;99.90;;;;;;484974;245;28442;-72
2024/02/09 00:07:54;;;;;;;8.93;3.30;;;9.90;99.90;;;;;;485057;245;28359;-72
2024/02/09 00:09:55;;;;;;;5.10;2.50;;;9.80;99.90;;;;;;485053;245;28534;-72
2024/02/09 00:11:56;;;;;;;4.60;3.17;;;9.80;99.90;;;;;;485103;245;28403;-72
2024/02/09 00:13:58;;;;;;;8.33;2.60;;;9.80;99.90;;;;;;485089;245;28492;-73
2024/02/09 00:15:59;;;;;;;5.23;2.70;;;9.70;99.90;;;;;;485015;245;27761;-72
2024/02/09 00:18:02;;;;;;;7.27;3.33;;;9.70;99.90;;;;;;485065;245;28072;-72
2024/02/09 00:20:07;;;;;;;4.43;2.50;;;9.70;99.90;;;;;;484903;245;27673;-72
2024/02/09 00:22:04;;;;;;;7.30;2.90;;;9.60;99.90;;;;;;484635;245;27854;-72
2024/02/09 00:24:04;;;;;;;6.10;2.70;;;9.60;99.90;;;;;;485058;245;27953;-72
2024/02/09 00:26:06;;;;;;;5.50;2.33;;;9.50;99.90;;;;;;484999;245;27940;-72
2024/02/09 00:28:08;;;;;;;9.67;3.33;;;9.50;99.90;;;;;;485027;245;27927;-72
2024/02/09 00:30:08;;;;;;;5.87;2.60;;;9.50;99.90;;;;;;484925;245;28383;-72
2024/02/09 00:32:09;;;;;;;7.77;2.70;;;9.40;99.90;;;;;;485084;245;27860;-73
2024/02/09 00:34:10;;;;;;;6.97;3.13;;;9.40;99.90;;;;;;485103;245;28078;-72
2024/02/09 00:36:11;;;;;;;7.53;2.50;;;9.40;99.90;;;;;;485069;245;27984;-72
2024/02/09 00:38:15;;;;;;;3.70;2.70;;;9.40;99.90;;;;;;485068;245;27855;-72
2024/02/09 00:40:14;;;;;;;6.80;3.10;;;9.30;99.90;;;;;;484971;245;27758;-75
2024/02/09 00:42:15;;;;;;;5.43;2.97;;;9.30;99.90;;;;;;485083;245;28095;-72
2024/02/09 00:44:17;;;;;;;3.93;2.60;;;9.30;99.90;;;;;;484976;245;28341;-72
2024/02/09 00:46:18;;;;;;;5.70;2.50;;;9.30;99.90;;;;;;484998;245;28425;-72
2024/02/09 00:48:19;;;;;;;7.67;2.60;;;9.20;99.90;;;;;;485063;245;28513;-72
2024/02/09 00:50:20;;;;;;;8.43;2.90;;;9.20;99.90;;;;;;485084;245;28614;-73
2024/02/09 00:52:21;;;;;;;3.70;2.53;;;9.20;99.90;;;;;;485069;245;28175;-72
2024/02/09 00:54:23;;;;;;;9.57;2.93;;;9.20;99.90;;;;;;485085;245;27981;-73
2024/02/09 00:56:24;;;;;;;5.30;2.93;;;9.20;99.90;;;;;;485028;245;28089;-72
2024/02/09 00:58:25;;;;;;;7.20;2.67;;;9.10;99.90;;;;;;485114;245;27509;-73
2024/02/09 01:00:30;;;;;;;10.40;3.50;;;9.10;99.90;;;;;;485120;245;27828;-72
2024/02/09 01:02:29;;;;;;;5.53;2.57;;;9.10;99.90;;;;;;484811;245;28091;-72
2024/02/09 01:04:29;;;;;;;8.33;2.73;;;9.10;99.90;;;;;;485009;245;28021;-73
2024/02/09 01:06:30;;;;;;;5.10;2.90;;;9.10;99.90;;;;;;485089;245;28034;-72
2024/02/09 01:08:31;;;;;;;5.67;2.80;;;9.10;99.90;;;;;;485107;245;27883;-72
2024/02/09 01:10:33;;;;;;;6.00;2.80;;;9.00;99.90;;;;;;485088;245;28130;-73
2024/02/09 02:45:16;;;;;;;5.13;2.43;;;9.00;99.90;;;;;;485106;245;27929;-73
2024/02/09 02:47:17;;;;;;;3.47;2.50;;;9.10;99.90;;;;;;485009;245;28108;-72
2024/02/09 03:05:34;;;;;;;6.70;2.33;;;9.00;99.90;;;;;;485068;245;28061;-71
2024/02/09 03:07:36;;;;;;;4.53;2.30;;;9.10;99.90;;;;;;485024;245;28047;-75
2024/02/09 03:09:37;;;;;;;4.23;2.47;;;9.00;99.90;;;;;;485078;245;27853;-73
2024/02/09 03:11:38;;;;;;;4.10;2.20;;;9.00;99.90;;;;;;485071;245;28167;-73
2024/02/09 03:13:42;;;;;;;3.83;2.10;;;9.10;99.90;;;;;;485047;245;27599;-73
2024/02/09 03:15:41;;;;;;;6.50;2.40;;;9.10;99.90;;;;;;484861;245;28036;-73
2024/02/09 03:17:42;;;;;;;4.87;2.40;;;9.10;99.90;;;;;;485099;245;28225;-75
2024/02/09 03:19:43;;;;;;;5.90;2.60;;;9.10;99.90;;;;;;485083;245;27879;-72
2024/02/09 03:21:44;;;;;;;5.17;2.83;;;9.10;99.90;;;;;;485055;245;28084;-73
2024/02/09 03:23:47;;;;;;;7.50;2.70;;;9.10;99.90;;;;;;485024;245;27927;-71
2024/02/09 03:25:48;;;;;;;3.40;2.10;;;9.10;99.90;;;;;;484918;245;28104;-73
2024/02/09 03:27:50;;;;;;;6.13;2.47;;;9.10;99.90;;;;;;485002;245;28142;-74
2024/02/09 03:29:49;;;;;;;3.40;2.23;;;9.10;99.90;;;;;;484922;245;28062;-73
2024/02/09 03:31:51;;;;;;;4.40;2.53;;;9.10;99.90;;;;;;485006;245;28334;-74
2024/02/09 03:33:54;;;;;;;5.50;2.40;;;9.10;99.90;;;;;;485010;245;29252;-73
2024/02/09 03:35:54;;;;;;;5.00;2.13;;;9.10;99.90;;;;;;484859;245;28277;-73
2024/02/09 03:37:55;;;;;;;7.30;2.30;;;9.20;99.90;;;;;;484987;245;28453;-73
2024/02/09 03:39:56;;;;;;;5.50;2.60;;;9.20;99.90;;;;;;485010;245;28020;-73
2024/02/09 03:41:58;;;;;;;7.80;2.73;;;9.10;99.90;;;;;;485013;245;28095;-73
2024/02/09 03:44:03;;;;;;;5.03;2.53;;;9.20;99.90;;;;;;484972;245;27774;-73
2024/02/09 03:46:00;;;;;;;8.43;3.17;;;9.20;99.90;;;;;;484549;245;28024;-73
2024/02/09 03:48:01;;;;;;;5.73;2.70;;;9.20;99.90;;;;;;485073;245;28096;-73
2024/02/09 03:50:04;;;;;;;5.00;2.73;;;9.20;99.90;;;;;;485071;245;27976;-73
2024/02/09 03:52:05;;;;;;;6.63;3.40;;;9.20;99.90;;;;;;484952;245;27958;-72
2024/02/09 03:54:04;;;;;;;3.60;2.33;;;9.20;99.90;;;;;;484963;245;27900;-75
2024/02/09 03:56:06;;;;;;;9.07;3.07;;;9.20;99.90;;;;;;485067;245;27843;-72
2024/02/09 03:58:07;;;;;;;7.23;2.97;;;9.20;99.90;;;;;;485084;245;27870;-73
2024/02/09 04:00:12;;;;;;;7.00;2.83;;;9.20;99.90;;;;;;485073;245;28055;-72
2024/02/09 04:02:09;;;;;;;10.20;3.90;;;9.20;99.90;;;;;;484751;245;27978;-72
2024/02/09 04:04:11;;;;;;;7.23;3.80;;;9.20;99.90;;;;;;485109;245;27911;-74
2024/02/09 04:06:12;;;;;;;7.50;3.13;;;9.20;99.90;;;;;;485048;245;28241;-72
2024/02/09 04:08:13;;;;;;;9.03;3.63;;;9.20;99.90;;;;;;485061;245;28562;-72
2024/02/09 04:10:14;;;;;;;5.33;3.07;;;9.20;99.90;;;;;;485029;245;28432;-72
2024/02/09 04:12:16;;;;;;;9.63;3.53;;;9.20;99.90;;;;;;485095;245;28527;-72
2024/02/09 04:14:17;;;;;;;8.33;3.70;;;9.30;99.90;;;;;;484948;245;28601;-73
2024/02/09 04:16:21;;;;;;;6.07;3.53;;;9.20;99.90;;;;;;485029;245;28653;-72
2024/02/09 04:18:19;;;;;;;8.53;4.10;;;9.30;99.90;;;;;;484913;245;28238;-72
2024/02/09 04:20:21;;;;;;;9.13;5.33;;;9.30;99.90;;;;;;485107;245;28095;-72
2024/02/09 04:22:22;;;;;;;7.40;4.90;;;9.30;99.90;;;;;;485086;245;28077;-72
2024/02/09 04:24:26;;;;;;;9.73;4.97;;;9.30;99.90;;;;;;484925;245;28055;-73
2024/02/09 04:26:27;;;;;;;13.47;5.90;;;9.30;99.90;;;;;;485033;245;28506;-72
2024/02/09 04:28:28;;;;;;;10.70;5.90;;;9.30;99.90;;;;;;485054;245;28545;-72
2024/02/09 04:30:30;;;;;;;15.33;6.00;;;9.30;99.90;;;;;;485072;245;28506;-72
2024/02/09 04:32:31;;;;;;;11.33;5.80;;;9.30;99.90;;;;;;485108;245;28635;-75
2024/02/09 04:34:32;;;;;;;12.33;7.67;;;9.30;99.90;;;;;;485097;245;27548;-72
2024/02/09 04:36:33;;;;;;;12.70;7.87;;;9.30;99.90;;;;;;485047;245;28031;-74
2024/02/09 04:38:37;;;;;;;13.57;6.87;;;9.40;99.90;;;;;;485088;245;28013;-72
2024/02/09 04:40:36;;;;;;;16.67;7.77;;;9.30;99.90;;;;;;484885;245;27896;-73
2024/02/09 04:42:37;;;;;;;9.10;6.33;;;9.30;99.90;;;;;;485105;245;27905;-75
2024/02/09 04:44:39;;;;;;;12.40;7.20;;;9.40;99.90;;;;;;485076;245;28000;-72
2024/02/09 04:46:40;;;;;;;9.93;7.07;;;9.40;99.90;;;;;;485028;245;28112;-73
2024/02/09 04:48:41;;;;;;;13.00;7.30;;;9.40;99.90;;;;;;485040;245;27973;-72
2024/02/09 04:50:42;;;;;;;17.00;7.37;;;9.40;99.90;;;;;;485104;245;28033;-72
2024/02/09 04:52:44;;;;;;;12.03;7.80;;;9.40;99.90;;;;;;485079;245;27894;-73
2024/02/09 04:54:45;;;;;;;12.60;7.07;;;9.40;99.90;;;;;;485106;245;28450;-72
2024/02/09 04:56:46;;;;;;;11.73;7.00;;;9.40;99.90;;;;;;485059;245;28541;-72
2024/02/09 04:58:49;;;;;;;12.87;7.53;;;9.40;99.90;;;;;;485113;245;28558;-74
2024/02/09 05:00:49;;;;;;;11.20;6.37;;;9.40;99.90;;;;;;484931;245;27948;-72
2024/02/09 05:02:51;;;;;;;13.70;8.20;;;9.40;99.90;;;;;;485048;245;28129;-73
2024/02/09 05:04:52;;;;;;;10.87;7.50;;;9.40;99.90;;;;;;484986;245;27823;-72
2024/02/09 05:06:52;;;;;;;14.80;8.53;;;9.30;99.90;;;;;;485040;245;27965;-72
2024/02/09 05:08:54;;;;;;;13.20;7.50;;;9.40;99.90;;;;;;485094;245;28028;-75
2024/02/09 05:10:55;;;;;;;12.77;7.37;;;9.40;99.90;;;;;;485071;245;27844;-72
2024/02/09 05:13:02;;;;;;;14.63;7.60;;;9.30;99.90;;;;;;485039;245;28014;-72
2024/02/09 05:14:57;;;;;;;12.23;8.50;;;9.40;99.90;;;;;;484639;245;27964;-72
2024/02/09 05:16:59;;;;;;;10.27;6.63;;;9.40;99.90;;;;;;485088;245;27796;-72
2024/02/09 05:19:01;;;;;;;13.23;7.73;;;9.40;99.90;;;;;;485107;245;28442;-74
2024/02/09 05:21:01;;;;;;;17.17;8.37;;;9.40;99.90;;;;;;485031;245;28375;-72
2024/02/09 05:23:03;;;;;;;13.90;7.97;;;9.40;99.90;;;;;;485064;245;28300;-72
2024/02/09 05:25:04;;;;;;;11.87;7.20;;;9.40;99.90;;;;;;485059;245;28611;-73
2024/02/09 05:27:05;;;;;;;15.33;8.67;;;9.40;99.90;;;;;;485055;245;27636;-73
2024/02/09 05:29:06;;;;;;;11.10;7.30;;;9.40;99.90;;;;;;485106;245;28107;-72
2024/02/09 05:31:07;;;;;;;13.73;7.80;;;9.40;99.90;;;;;;485097;245;28069;-72
2024/02/09 05:33:10;;;;;;;18.03;7.60;;;9.40;99.90;;;;;;485093;245;28016;-72
2024/02/09 05:35:10;;;;;;;11.47;7.33;;;9.40;99.90;;;;;;485012;245;28035;-74
2024/02/09 05:37:12;;;;;;;16.80;7.10;;;9.40;99.90;;;;;;485095;245;27957;-72
2024/02/09 05:39:12;;;;;;;10.50;7.10;;;9.40;99.90;;;;;;485042;245;27585;-72
2024/02/09 05:41:14;;;;;;;11.00;6.83;;;9.40;99.90;;;;;;485070;245;27714;-72
2024/02/09 05:43:15;;;;;;;14.30;6.60;;;9.50;99.90;;;;;;485112;245;28477;-72
2024/02/09 05:45:16;;;;;;;11.13;6.70;;;9.50;99.90;;;;;;485125;245;28481;-74
2024/02/09 05:47:17;;;;;;;11.77;7.87;;;9.50;99.90;;;;;;485032;245;28411;-72
2024/02/09 05:49:19;;;;;;;11.30;8.20;;;9.50;99.90;;;;;;485076;245;28634;-72
2024/02/09 05:51:21;;;;;;;9.83;6.60;;;9.50;99.90;;;;;;485079;245;28006;-72
2024/02/09 05:53:21;;;;;;;14.20;7.80;;;9.50;99.90;;;;;;485048;245;28060;-73
2024/02/09 05:55:23;;;;;;;13.10;7.27;;;9.40;99.90;;;;;;485042;245;28078;-73
2024/02/09 05:57:24;;;;;;;13.10;6.73;;;9.50;99.90;;;;;;484978;245;27979;-72
2024/02/09 05:59:25;;;;;;;11.87;6.90;;;9.50;99.90;;;;;;485041;245;27904;-73
2024/02/09 06:01:26;;;;;;;11.93;6.87;;;9.50;99.90;;;;;;485107;245;28324;-74
2024/02/09 06:03:28;;;;;;;11.17;7.33;;;9.40;99.90;;;;;;485118;245;27973;-73
2024/02/09 06:05:29;;;;;;;16.17;7.97;;;9.50;99.90;;;;;;485035;245;28044;-73
2024/02/09 06:07:30;;;;;;;10.07;6.17;;;9.40;99.90;;;;;;485025;245;27764;-73
2024/02/09 06:09:31;;;;;;;12.77;7.00;;;9.50;99.90;;;;;;485092;245;28336;-73
2024/02/09 06:11:32;;;;;;;16.07;7.20;;;9.40;99.90;;;;;;485112;245;28503;-74
2024/02/09 06:13:34;;;;;;;18.90;8.27;;;9.50;99.90;;;;;;485087;245;28266;-73
2024/02/09 06:15:36;;;;;;;16.10;7.07;;;9.50;99.90;;;;;;485093;245;28026;-73
2024/02/09 06:17:36;;;;;;;13.63;7.07;;;9.50;99.90;;;;;;484969;245;27968;-72
2024/02/09 06:19:37;;;;;;;13.87;6.57;;;9.50;99.90;;;;;;485126;245;27493;-72
2024/02/09 06:21:40;;;;;;;19.03;7.10;;;9.50;99.90;;;;;;485109;245;27780;-73
2024/02/09 06:23:41;;;;;;;13.23;7.10;;;9.50;99.90;;;;;;485024;245;28056;-72
2024/02/09 06:25:41;;;;;;;15.50;7.30;;;9.50;99.90;;;;;;485020;245;28060;-73
2024/02/09 06:27:42;;;;;;;23.53;6.83;;;9.50;99.90;;;;;;485087;245;27953;-72
2024/02/09 06:29:45;;;;;;;10.97;6.87;;;9.50;99.90;;;;;;485112;245;27630;-72
2024/02/09 06:31:45;;;;;;;16.40;7.13;;;9.60;99.90;;;;;;484990;245;28000;-72
2024/02/09 06:33:49;;;;;;;14.90;6.97;;;9.50;99.90;;;;;;485067;245;28459;-73
2024/02/09 06:35:50;;;;;;;19.30;6.87;;;9.50;99.90;;;;;;484754;245;28700;-73
2024/02/09 06:37:50;;;;;;;11.57;6.83;;;9.50;99.90;;;;;;484871;245;28524;-75
2024/02/09 06:39:50;;;;;;;14.90;6.33;;;9.50;99.90;;;;;;484995;245;27867;-73
2024/02/09 06:41:51;;;;;;;18.37;7.83;;;9.50;99.90;;;;;;485062;245;27648;-73
2024/02/09 06:43:52;;;;;;;13.80;6.80;;;9.50;99.90;;;;;;485039;245;28038;-73
2024/02/09 06:45:54;;;;;;;16.40;7.53;;;9.50;99.90;;;;;;485002;245;27890;-73
2024/02/09 06:47:55;;;;;;;18.30;7.00;;;9.50;99.90;;;;;;485083;245;28021;-75
2024/02/09 06:49:56;;;;;;;12.10;7.20;;;9.50;99.90;;;;;;485064;245;28175;-72
2024/02/09 06:51:57;;;;;;;10.83;6.53;;;9.50;99.90;;;;;;485073;245;28129;-73
2024/02/09 06:53:59;;;;;;;17.17;6.43;;;9.60;99.90;;;;;;485037;245;27887;-73
2024/02/09 06:56:00;;;;;;;12.17;6.77;;;9.50;99.90;;;;;;485047;245;27927;-72
2024/02/09 06:58:01;;;;;;;11.63;6.37;;;9.50;99.90;;;;;;485062;245;28581;-74
2024/02/09 07:00:03;;;;;;;17.60;6.87;;;9.50;99.90;;;;;;485042;245;28580;-73
2024/02/09 07:02:05;;;;;;;14.30;6.70;;;9.50;99.90;;;;;;485053;245;28665;-78
2024/02/09 07:04:07;;;;;;;17.63;6.70;;;9.50;99.90;;;;;;485005;245;29135;-73
2024/02/09 07:06:07;;;;;;;11.57;6.37;;;9.50;99.90;;;;;;484914;245;28099;-73
2024/02/09 07:08:08;;;;;;;20.33;6.53;;;9.50;99.90;;;;;;485015;245;28074;-73
2024/02/09 07:10:09;;;;;;;19.83;6.67;;;9.40;99.90;;;;;;485037;245;27848;-73
2024/02/09 07:12:10;;;;;;;19.30;7.30;;;9.50;99.90;;;;;;484999;245;27685;-70
2024/02/09 07:14:11;;;;;;;17.13;6.63;;;9.40;99.90;;;;;;485094;245;28271;-74
2024/02/09 07:16:13;;;;;;;18.53;6.57;;;9.40;99.90;;;;;;485036;245;28124;-72
2024/02/09 07:18:14;;;;;;;15.23;6.40;;;9.40;99.90;;;;;;485038;245;27996;-72
2024/02/09 07:20:16;;;;;;;17.30;6.77;;;9.50;99.90;;;;;;485079;245;27964;-72
2024/02/09 07:22:16;;;;;;;16.13;6.73;;;9.50;99.90;;;;;;485018;245;28181;-72
2024/02/09 07:24:18;;;;;;;10.60;5.73;;;9.50;99.90;;;;;;485115;245;28599;-73
2024/02/09 07:26:20;;;;;;;13.50;6.10;;;9.50;99.90;;;;;;485034;245;28458;-72
2024/02/09 07:28:21;;;;;;;14.00;6.40;;;9.50;99.90;;;;;;484996;245;28445;-73
2024/02/09 07:30:24;;;;;;;10.20;5.60;;;9.60;99.90;;;;;;485018;245;28084;-72
2024/02/09 07:32:22;;;;;;;12.87;6.40;;;9.60;99.90;;;;;;484930;245;27765;-72
2024/02/09 07:34:24;;;;;;;13.37;6.10;;;9.60;99.90;;;;;;485093;245;27916;-73
2024/02/09 07:36:28;;;;;;;13.73;6.67;;;9.60;99.90;;;;;;485039;245;27485;-72
2024/02/09 07:38:26;;;;;;;15.37;6.03;;;9.60;99.90;;;;;;484877;245;28122;-72
2024/02/09 07:40:27;;;;;;;17.63;6.47;;;9.60;99.90;;;;;;485134;245;28361;-74
2024/02/09 07:42:29;;;;;;;16.10;6.30;;;9.60;99.90;;;;;;485109;245;27745;-73
2024/02/09 07:44:30;;;;;;;13.47;6.33;;;9.70;99.90;;;;;;485102;245;28032;-73
2024/02/09 07:46:31;;;;;;;14.07;5.60;;;9.70;99.90;;;;;;485053;245;28366;-72
2024/02/09 07:48:33;;;;;;;15.80;6.20;;;9.70;99.90;;;;;;485041;245;28621;-72
2024/02/09 07:50:41;;;;;;;14.60;5.57;;;9.70;99.90;;;;;;485102;245;28524;-74
2024/02/09 07:52:38;;;;;;;13.73;5.97;;;9.70;99.90;;;;;;484467;245;28880;-72
2024/02/09 07:54:36;;;;;;;10.47;5.00;;;9.70;99.90;;;;;;484861;245;28009;-74
2024/02/09 07:56:37;;;;;;;15.07;6.20;;;9.70;99.90;;;;;;485008;245;27977;-72
2024/02/09 07:58:39;;;;;;;12.57;5.20;;;9.70;99.90;;;;;;485094;245;27976;-72
2024/02/09 08:00:40;;;;;;;12.20;5.40;;;9.70;99.90;;;;;;485102;245;28001;-75
2024/02/09 08:02:41;;;;;;;13.87;5.83;;;9.70;99.90;;;;;;485090;245;27971;-72
2024/02/09 08:04:43;;;;;;;14.47;5.90;;;9.80;99.90;;;;;;485075;245;28006;-73
2024/02/09 08:06:44;;;;;;;10.60;5.03;;;9.80;99.90;;;;;;485034;245;28081;-72
2024/02/09 08:08:45;;;;;;;15.03;5.43;;;9.80;99.90;;;;;;485088;245;28176;-72
2024/02/09 08:10:46;;;;;;;10.10;5.30;;;9.80;99.90;;;;;;485093;245;28359;-72
2024/02/09 08:12:48;;;;;;;13.87;4.70;;;9.80;99.90;;;;;;485067;245;28564;-72
2024/02/09 08:14:49;;;;;;;13.40;5.30;;;9.80;99.90;;;;;;485060;245;28483;-72
2024/02/09 08:16:50;;;;;;;11.63;6.10;;;9.80;99.90;;;;;;484926;245;28674;-73
2024/02/09 08:18:52;;;;;;;14.23;5.10;;;9.80;99.90;;;;;;485106;245;28087;-72
2024/02/09 08:20:53;;;;;;;12.20;5.33;;;9.90;99.90;;;;;;485015;245;28174;-72
2024/02/09 08:22:54;;;;;;;8.97;4.60;;;9.90;99.90;;;;;;485031;245;27970;-72
2024/02/09 08:24:55;;;;;;;8.60;4.90;;;9.90;99.90;;;;;;485067;245;28128;-72
2024/02/09 08:26:56;;;;;;;14.70;5.03;;;9.90;99.90;;;;;;484935;245;28004;-74
2024/02/09 08:28:58;;;;;;;10.07;4.60;;;9.90;99.90;;;;;;485083;245;28061;-73
2024/02/09 08:30:59;;;;;;;14.83;4.93;;;9.90;99.90;;;;;;485086;245;27898;-73
2024/02/09 08:33:00;;;;;;;11.73;4.23;;;9.90;99.90;;;;;;485058;245;27955;-72
2024/02/09 08:35:01;;;;;;;10.57;4.97;;;10.00;99.90;;;;;;485083;245;27965;-72
2024/02/09 08:37:03;;;;;;;12.93;4.90;;;10.00;99.90;;;;;;485058;245;28673;-74
2024/02/09 08:39:04;;;;;;;8.47;4.60;;;10.00;99.90;;;;;;485106;245;28612;-72
2024/02/09 08:41:06;;;;;;;9.80;4.43;;;10.10;99.90;;;;;;485102;245;28542;-72
2024/02/09 08:43:06;;;;;;;9.80;4.23;;;10.20;99.90;;;;;;485037;245;27905;-72
2024/02/09 08:45:08;;;;;;;11.00;4.47;;;10.20;99.90;;;;;;485124;245;28146;-73
2024/02/09 08:47:09;;;;;;;10.60;4.30;;;10.20;99.90;;;;;;485083;245;28035;-73
2024/02/09 08:49:10;;;;;;;14.20;5.30;;;10.20;99.90;;;;;;485109;245;28058;-72
2024/02/09 08:51:11;;;;;;;13.93;5.37;;;10.20;99.90;;;;;;485088;245;27907;-72
2024/02/09 08:53:13;;;;;;;13.93;5.23;;;10.20;99.90;;;;;;485105;245;28047;-75
2024/02/09 08:55:14;;;;;;;13.57;4.67;;;10.20;99.90;;;;;;485135;245;28111;-72
2024/02/09 08:57:17;;;;;;;8.77;3.83;;;10.30;99.90;;;;;;485052;245;28574;-73
2024/02/09 08:59:16;;;;;;;13.37;4.83;;;10.30;99.90;;;;;;485018;245;28379;-72
2024/02/09 09:01:18;;;;;;;11.90;4.50;;;10.40;99.90;;;;;;485073;245;28007;-72
2024/02/09 09:03:19;;;;;;;11.27;4.90;;;10.40;99.90;;;;;;485096;245;27980;-74
2024/02/09 09:05:20;;;;;;;9.90;4.80;;;10.50;99.90;;;;;;485080;245;27873;-72
2024/02/09 09:07:21;;;;;;;8.57;4.07;;;10.60;99.90;;;;;;485005;245;27964;-73
2024/02/09 09:09:23;;;;;;;9.70;4.30;;;10.60;99.90;;;;;;485038;245;28163;-72
2024/02/09 09:11:24;;;;;;;13.20;3.90;;;10.60;99.90;;;;;;485115;245;28160;-72
2024/02/09 09:13:25;;;;;;;9.83;4.03;;;10.70;99.90;;;;;;485099;245;28120;-73
2024/02/09 09:15:26;;;;;;;9.50;4.00;;;10.70;99.90;;;;;;485083;245;28210;-72
2024/02/09 09:17:28;;;;;;;13.70;4.97;;;10.80;99.90;;;;;;485044;245;28723;-73
2024/02/09 09:19:29;;;;;;;13.10;4.10;;;10.90;99.90;;;;;;485076;245;28689;-72
2024/02/09 09:21:30;;;;;;;13.33;4.27;;;11.00;99.90;;;;;;485070;245;28790;-73
2024/02/09 09:23:31;;;;;;;12.43;4.53;;;11.00;99.90;;;;;;485082;245;28381;-74
2024/02/09 09:25:34;;;;;;;8.90;4.00;;;;;;;;;;485068;245;28362;-72
2024/02/09 09:27:36;;;;;;;10.50;4.70;;;;;;;;;;485047;245;27923;-73
2024/02/09 09:29:37;;;;;;;14.67;4.47;;;10.80;99.90;;;;;;485092;245;27278;-74
2024/02/09 09:31:39;;;;;;;9.87;3.40;;;10.90;99.90;;;;;;485058;245;28212;-73
2024/02/09 09:33:40;;;;;;;10.37;4.57;;;11.00;99.90;;;;;;485010;245;28242;-73
2024/02/09 09:35:41;;;;;;;9.67;4.10;;;11.20;99.90;;;;;;485067;245;28424;-74
2024/02/09 09:37:44;;;;;;;9.33;3.93;;;11.30;99.90;;;;;;485097;245;28743;-72
2024/02/09 09:39:44;;;;;;;11.63;4.10;;;11.40;99.90;;;;;;484921;245;28853;-73
2024/02/09 09:41:48;;;;;;;8.87;4.43;;;11.40;99.90;;;;;;485053;245;28688;-73
2024/02/09 09:43:52;;;;;;;9.53;4.10;;;11.30;99.90;;;;;;484791;245;28192;-72
2024/02/09 09:45:58;;;;;;;8.30;4.03;;;11.30;99.90;;;;;;485049;245;28272;-74
2024/02/09 09:47:56;;;;;;;9.87;4.13;;;11.30;99.90;;;;;;484728;245;28120;-73
2024/02/09 09:49:56;;;;;;;9.67;3.90;;;11.30;99.90;;;;;;484992;245;28367;-73
2024/02/09 09:51:57;;;;;;;11.40;3.60;;;11.30;99.90;;;;;;485056;245;28152;-73
2024/02/09 09:54:00;;;;;;;12.60;4.00;;;11.30;99.90;;;;;;485094;245;28405;-72
2024/02/09 09:56:00;;;;;;;9.83;4.60;;;11.40;99.90;;;;;;484926;245;28626;-72
2024/02/09 09:58:01;;;;;;;8.57;3.93;;;11.30;99.90;;;;;;485054;245;28287;-73
2024/02/09 10:00:03;;;;;;;8.93;4.30;;;11.30;99.90;;;;;;485066;245;28490;-72
2024/02/09 10:02:05;;;;;;;7.47;3.87;;;11.30;99.90;;;;;;485073;245;29096;-75
2024/02/09 10:04:05;;;;;;;11.30;4.10;;;11.30;99.90;;;;;;484967;245;28544;-72
2024/02/09 10:06:06;;;;;;;8.90;3.80;;;11.30;99.90;;;;;;485051;245;28930;-73
2024/02/09 10:08:07;;;;;;;7.97;4.00;;;11.30;99.90;;;;;;485050;245;28290;-72
2024/02/09 10:10:09;;;;;;;14.30;4.60;;;11.30;99.90;;;;;;485002;245;28324;-73
2024/02/09 10:12:10;;;;;;;8.10;4.03;;;11.30;99.90;;;;;;485068;245;28386;-74
2024/02/09 10:14:16;;;;;;;9.23;4.43;;;11.30;99.90;;;;;;485062;245;28216;-72
2024/02/09 10:16:12;;;;;;;13.07;4.47;;;11.30;99.90;;;;;;484563;245;28365;-72
2024/02/09 10:18:14;;;;;;;8.20;3.60;;;11.30;99.90;;;;;;485045;245;28257;-72
2024/02/09 10:20:15;;;;;;;9.50;4.30;;;11.30;99.90;;;;;;485094;245;28422;-72
2024/02/09 10:22:18;;;;;;;8.30;3.70;;;11.40;99.90;;;;;;485091;245;28491;-73
2024/02/09 10:24:17;;;;;;;8.17;4.67;;;11.40;99.90;;;;;;484925;245;28750;-73
2024/02/09 10:26:20;;;;;;;8.00;4.03;;;11.50;99.90;;;;;;485017;245;28845;-73
2024/02/09 10:28:20;;;;;;;20.33;5.10;;;11.50;99.90;;;;;;485030;245;29027;-74
2024/02/09 10:30:21;;;;;;;7.53;4.33;;;11.40;99.90;;;;;;485085;245;28307;-72
2024/02/09 10:32:22;;;;;;;8.13;4.03;;;11.40;99.90;;;;;;485055;245;28349;-72
2024/02/09 10:34:24;;;;;;;7.60;3.40;;;11.40;99.90;;;;;;485021;245;28208;-72
2024/02/09 10:36:25;;;;;;;8.07;4.13;;;11.50;99.90;;;;;;485006;245;28219;-73
2024/02/09 10:38:27;;;;;;;11.77;4.10;;;;;;;;;;485089;245;28507;-72
2024/02/09 10:40:29;;;;;;;10.47;5.00;;;11.50;99.90;;;;;;485053;245;27231;-73
2024/02/09 10:42:30;;;;;;;7.20;4.00;;;11.50;99.90;;;;;;485078;245;28425;-72
2024/02/09 10:44:32;;;;;;;14.83;4.60;;;11.60;99.90;;;;;;485021;245;28325;-72
2024/02/09 10:46:32;;;;;;;10.43;4.80;;;11.50;99.90;;;;;;485033;245;28239;-75
2024/02/09 10:48:34;;;;;;;8.20;3.50;;;11.50;99.90;;;;;;485062;245;28373;-72
2024/02/09 10:50:35;;;;;;;8.33;3.67;;;11.50;99.90;;;;;;485005;245;28101;-72
2024/02/09 10:52:37;;;;;;;7.10;3.27;;;11.40;99.90;;;;;;485061;245;28296;-72
2024/02/09 10:54:38;;;;;;;8.07;4.20;;;11.30;99.90;;;;;;485126;245;28262;-72
2024/02/09 10:56:39;;;;;;;9.57;4.07;;;11.30;99.90;;;;;;484948;245;28858;-72
2024/02/09 10:58:40;;;;;;;8.57;3.57;;;11.30;99.90;;;;;;485097;245;28870;-72
2024/02/09 11:00:41;;;;;;;11.33;4.47;;;11.30;99.90;;;;;;485084;243;28844;-73
2024/02/09 11:02:44;;;;;;;8.63;4.27;;;;;;;;;;485095;245;28345;-72
2024/02/09 11:04:46;;;;;;;8.70;4.37;;;11.20;99.90;;;;;;485082;245;27258;-73
2024/02/09 11:06:46;;;;;;;14.73;5.47;;;11.20;99.90;;;;;;485004;245;28311;-72
2024/02/09 11:08:47;;;;;;;10.10;4.47;;;11.20;99.90;;;;;;485059;245;28717;-73
2024/02/09 11:10:50;;;;;;;8.33;4.13;;;;;;;;;;485110;245;28827;-73
2024/02/09 11:12:51;;;;;;;11.07;4.07;;;11.30;99.90;;;;;;485088;245;27249;-73
2024/02/09 11:14:52;;;;;;;13.53;4.47;;;11.40;99.90;;;;;;485074;245;28218;-72
2024/02/09 11:16:53;;;;;;;15.30;4.30;;;11.50;99.90;;;;;;484949;245;28266;-72
2024/02/09 11:18:55;;;;;;;6.87;4.10;;;11.50;99.90;;;;;;485108;245;29047;-76
2024/02/09 11:20:56;;;;;;;8.83;3.90;;;11.50;99.90;;;;;;485093;245;28209;-72
2024/02/09 11:23:00;;;;;;;8.50;3.83;;;11.50;99.90;;;;;;485059;245;28282;-72
2024/02/09 11:24:59;;;;;;;10.27;4.13;;;11.50;99.90;;;;;;484925;245;28528;-72
2024/02/09 11:27:00;;;;;;;4.40;3.47;;;11.40;99.90;;;;;;485096;245;28449;-72
2024/02/09 11:29:01;;;;;;;11.00;4.10;;;11.40;99.90;;;;;;485092;245;28405;-74
2024/02/09 11:31:02;;;;;;;10.43;4.60;;;11.40;99.90;;;;;;485082;245;28803;-72
2024/02/09 11:33:04;;;;;;;12.80;5.17;;;11.40;99.90;;;;;;485053;245;29293;-73
2024/02/09 11:35:05;;;;;;;18.03;7.30;;;11.40;99.90;;;;;;485080;245;28561;-72
2024/02/09 11:37:06;;;;;;;12.10;4.07;;;11.40;99.90;;;;;;485083;245;28309;-72
2024/02/09 11:39:09;;;;;;;9.87;4.00;;;11.40;99.90;;;;;;485088;245;28435;-72
2024/02/09 11:41:09;;;;;;;9.73;3.83;;;11.40;99.90;;;;;;484889;245;28425;-72
2024/02/09 11:43:10;;;;;;;6.17;3.80;;;11.40;99.90;;;;;;485064;245;28576;-72
2024/02/09 11:45:11;;;;;;;7.60;3.20;;;11.40;99.90;;;;;;485102;245;28512;-74
2024/02/09 11:47:12;;;;;;;14.60;4.57;;;11.50;99.90;;;;;;485034;245;28317;-73
2024/02/09 11:49:14;;;;;;;10.00;4.37;;;11.50;99.90;;;;;;485060;245;28439;-73
2024/02/09 11:51:15;;;;;;;10.53;4.87;;;11.60;99.90;;;;;;485062;245;28157;-72
2024/02/09 11:53:16;;;;;;;13.37;4.70;;;11.70;99.90;;;;;;485075;245;28025;-72
2024/02/09 11:55:17;;;;;;;9.43;4.53;;;11.70;99.90;;;;;;485093;245;28129;-74
2024/02/09 11:57:19;;;;;;;11.00;3.80;;;11.80;99.90;;;;;;485038;245;28449;-73
2024/02/09 11:59:20;;;;;;;8.90;3.73;;;11.80;99.90;;;;;;485094;245;28361;-73
2024/02/09 12:01:21;;;;;;;11.20;4.60;;;11.90;99.90;;;;;;485075;245;29120;-75
2024/02/09 12:03:22;;;;;;;15.07;4.17;;;11.80;99.90;;;;;;485072;245;29136;-73
2024/02/09 12:05:24;;;;;;;11.53;3.43;;;11.80;99.90;;;;;;485063;245;28630;-73
2024/02/09 12:07:25;;;;;;;7.10;3.63;;;11.70;99.90;;;;;;485002;245;28348;-72
2024/02/09 12:09:26;;;;;;;6.43;3.97;;;11.70;99.90;;;;;;485030;245;28240;-73
2024/02/09 12:11:27;;;;;;;13.17;4.23;;;11.70;99.90;;;;;;485071;245;28392;-75
2024/02/09 12:13:29;;;;;;;7.90;3.93;;;11.60;99.90;;;;;;485028;245;28485;-73
2024/02/09 12:15:30;;;;;;;12.10;6.57;;;11.60;99.90;;;;;;485035;245;28251;-72
2024/02/09 12:17:31;;;;;;;16.10;5.43;;;11.50;99.90;;;;;;485024;245;28324;-73
2024/02/09 12:19:32;;;;;;;8.00;4.43;;;11.50;99.90;;;;;;485106;245;28443;-72
2024/02/09 12:21:34;;;;;;;6.13;3.63;;;11.50;99.90;;;;;;485126;245;28947;-73
2024/02/09 12:23:35;;;;;;;7.50;3.13;;;11.50;99.90;;;;;;485054;245;28867;-73